Time;durP1;ratioP1;P1;durP2;ratioP2;P2;SDS_P1;SDS_P2;PMS_P1;PMS_P2;Temp;Humidity;BMP_temperature;BMP_pressure;BME280_temperature;BME280_humidity;BME280_pressure;Samples;Min_cycle;Max_cycle;Signal;HPM_P1;HPM_P2
2022/06/10 00:01:41;;;;;;;3.60;3.03;;;13.80;99.90;;;;;;5033937;28;20688;-75
2022/06/10 00:04:07;;;;;;;3.87;3.33;;;13.80;99.90;;;;;;5052642;28;20171;-69
2022/06/10 00:06:32;;;;;;;8.73;3.30;;;13.90;99.90;;;;;;5050944;28;20182;-69
2022/06/10 00:08:58;;;;;;;3.77;3.50;;;13.90;99.90;;;;;;5053460;28;20266;-75
2022/06/10 00:11:24;;;;;;;4.60;3.43;;;13.90;99.90;;;;;;5052613;28;20170;-75
2022/06/10 00:13:50;;;;;;;3.40;3.20;;;13.90;99.90;;;;;;5033155;28;20610;-74
2022/06/10 00:16:19;;;;;;;4.43;3.00;;;13.90;99.90;;;;;;5033035;28;20694;-69
2022/06/10 00:18:45;;;;;;;3.83;2.90;;;13.90;99.90;;;;;;5051750;28;20407;-74
2022/06/10 00:21:13;;;;;;;6.40;3.27;;;13.90;99.90;;;;;;5053331;28;20410;-69
2022/06/10 00:23:39;;;;;;;3.63;3.33;;;13.90;99.90;;;;;;5035283;28;20469;-69
2022/06/10 00:26:05;;;;;;;3.27;2.87;;;13.90;99.90;;;;;;5034399;28;20858;-74
2022/06/10 00:28:32;;;;;;;3.23;2.93;;;13.90;99.90;;;;;;5030680;28;20568;-69
2022/06/10 00:30:58;;;;;;;2.90;2.70;;;13.90;99.90;;;;;;5034359;28;20429;-75
2022/06/10 00:33:24;;;;;;;2.80;2.60;;;14.00;99.90;;;;;;5033074;28;20448;-72
2022/06/10 00:35:50;;;;;;;3.57;2.93;;;14.00;99.90;;;;;;5042767;28;20433;-69
2022/06/10 00:38:17;;;;;;;3.77;3.43;;;14.00;99.90;;;;;;5052255;28;20206;-75
2022/06/10 00:40:48;;;;;;;3.17;2.93;;;14.00;99.90;;;;;;5044210;28;20399;-68
2022/06/10 00:43:19;;;;;;;3.10;2.90;;;13.90;99.90;;;;;;5032664;28;20468;-75
2022/06/10 00:46:09;;;;;;;3.73;3.03;;;13.80;99.90;;;;;;5039824;28;20437;-75
2022/06/10 00:48:57;;;;;;;3.47;3.00;;;13.90;99.90;;;;;;5052379;28;20421;-75
2022/06/10 00:51:41;;;;;;;4.47;3.33;;;13.90;99.90;;;;;;5040160;28;20450;-69
2022/06/10 00:54:25;;;;;;;3.43;2.90;;;13.80;99.90;;;;;;5032700;28;20398;-75
2022/06/10 00:57:17;;;;;;;4.90;2.87;;;13.80;99.90;;;;;;5046678;28;20432;-75
2022/06/10 00:59:57;;;;;;;3.93;3.43;;;13.80;99.90;;;;;;5050931;28;20455;-69
2022/06/10 01:02:26;;;;;;;5.43;3.10;;;13.80;99.90;;;;;;5052450;28;20456;-69
2022/06/10 01:04:55;;;;;;;4.23;3.80;;;13.90;99.90;;;;;;5052205;28;20399;-69
2022/06/10 01:07:29;;;;;;;6.37;2.70;;;13.90;99.90;;;;;;5051971;28;20381;-69
2022/06/10 01:09:56;;;;;;;3.73;3.40;;;13.90;99.90;;;;;;5033779;28;20452;-69
2022/06/10 01:12:52;;;;;;;3.70;2.80;;;14.00;99.90;;;;;;5052400;28;20428;-75
2022/06/10 01:15:24;;;;;;;3.07;2.80;;;14.00;99.90;;;;;;5036691;28;20412;-75
2022/06/10 01:18:12;;;;;;;2.90;2.70;;;14.00;99.90;;;;;;5030917;28;20422;-75
2022/06/10 01:21:00;;;;;;;3.07;2.80;;;13.90;99.90;;;;;;5031760;28;20389;-69
2022/06/10 01:23:28;;;;;;;4.33;3.17;;;13.80;99.90;;;;;;5036350;28;20427;-69
2022/06/10 01:26:03;;;;;;;3.13;2.83;;;13.90;99.90;;;;;;5034173;28;20909;-73
2022/06/10 01:29:02;;;;;;;2.73;2.53;;;13.90;99.90;;;;;;5035233;28;20499;-75
2022/06/10 01:31:36;;;;;;;3.47;2.73;;;13.90;99.90;;;;;;5051360;28;20413;-69
2022/06/10 01:34:34;;;;;;;3.10;2.80;;;13.90;99.90;;;;;;5045019;28;20854;-69
2022/06/10 01:37:25;;;;;;;2.67;2.47;;;13.90;99.90;;;;;;5032011;28;20887;-68
2022/06/10 01:39:57;;;;;;;2.70;2.50;;;13.90;99.90;;;;;;5031441;28;20462;-69
2022/06/10 01:42:25;;;;;;;3.00;2.70;;;13.80;99.90;;;;;;5031649;28;20465;-75
2022/06/10 01:45:01;;;;;;;2.80;2.60;;;13.80;99.90;;;;;;5045348;28;20471;-69
2022/06/10 01:47:37;;;;;;;2.80;2.60;;;13.70;99.90;;;;;;5054873;28;20397;-75
2022/06/10 01:50:15;;;;;;;3.13;2.90;;;13.70;99.90;;;;;;5041545;28;20416;-69
2022/06/10 01:52:56;;;;;;;3.20;2.93;;;13.60;99.90;;;;;;5035731;28;20473;-68
2022/06/10 01:55:53;;;;;;;2.80;2.27;;;13.60;99.90;;;;;;5051713;28;20400;-69
2022/06/10 01:58:28;;;;;;;4.53;2.97;;;13.50;99.90;;;;;;5054887;28;20432;-70
2022/06/10 02:01:01;;;;;;;3.10;2.90;;;13.40;99.90;;;;;;5036259;28;20410;-69
2022/06/10 02:03:38;;;;;;;3.63;3.43;;;13.40;99.90;;;;;;5035823;28;20832;-75
2022/06/10 02:06:13;;;;;;;4.70;2.87;;;13.40;99.90;;;;;;5035158;28;20457;-74
2022/06/10 02:08:46;;;;;;;9.97;3.60;;;13.40;99.90;;;;;;5037827;28;20941;-75
2022/06/10 02:11:15;;;;;;;3.50;3.30;;;13.40;99.90;;;;;;5035793;28;20413;-75
2022/06/10 02:14:01;;;;;;;2.87;2.67;;;13.40;99.90;;;;;;5034935;28;20457;-75
2022/06/10 02:16:31;;;;;;;3.10;2.90;;;13.30;99.90;;;;;;5035160;28;20396;-72
2022/06/10 02:19:15;;;;;;;3.40;3.10;;;13.30;99.90;;;;;;5038925;28;20407;-72
2022/06/10 02:22:06;;;;;;;3.40;3.10;;;13.30;99.90;;;;;;5042059;28;20996;-75
2022/06/10 02:24:50;;;;;;;5.27;3.30;;;13.20;99.90;;;;;;5041914;28;20987;-74
2022/06/10 02:27:20;;;;;;;5.00;3.00;;;13.20;99.90;;;;;;5054294;28;20390;-69
2022/06/10 02:29:54;;;;;;;3.50;3.20;;;13.10;99.90;;;;;;5040018;28;20789;-69
2022/06/10 02:32:21;;;;;;;3.63;3.33;;;13.10;99.90;;;;;;5035507;28;20398;-75
2022/06/10 02:34:47;;;;;;;3.57;3.23;;;13.00;99.90;;;;;;5042637;28;20430;-68
2022/06/10 02:37:19;;;;;;;5.43;3.57;;;12.90;99.90;;;;;;5034536;28;20443;-69
2022/06/10 02:39:57;;;;;;;5.27;3.90;;;12.90;99.90;;;;;;5046113;28;21010;-69
2022/06/10 02:42:29;;;;;;;3.70;3.40;;;12.80;99.90;;;;;;5055149;28;20420;-75
2022/06/10 02:44:58;;;;;;;5.37;3.50;;;12.80;99.90;;;;;;5040534;28;20400;-75
2022/06/10 02:47:29;;;;;;;8.80;3.87;;;12.70;99.90;;;;;;5033479;28;20415;-69
2022/06/10 02:49:55;;;;;;;4.93;4.53;;;12.70;99.90;;;;;;5047027;28;20940;-69
2022/06/10 02:52:26;;;;;;;4.03;3.73;;;12.70;99.90;;;;;;5054967;28;20388;-75
2022/06/10 02:54:51;;;;;;;5.00;4.60;;;12.70;99.90;;;;;;5043335;28;20418;-75
2022/06/10 03:01:11;;;;;;;6.83;4.97;;;12.70;99.90;;;;;;5033804;28;20408;-75
2022/06/10 03:03:35;;;;;;;10.57;5.00;;;12.70;1.00;;;;;;5034575;28;20451;-69
2022/06/10 03:06:09;;;;;;;5.93;4.37;;;12.70;1.00;;;;;;5045031;28;20400;-69
2022/06/10 03:08:46;;;;;;;10.33;5.33;;;12.80;1.00;;;;;;5053421;28;20407;-69
2022/06/10 03:11:14;;;;;;;5.03;4.63;;;12.80;1.00;;;;;;5054514;28;20437;-69
2022/06/10 03:13:43;;;;;;;5.97;5.37;;;12.80;1.00;;;;;;5052678;28;20553;-75
2022/06/10 03:16:39;;;;;;;8.00;5.27;;;12.80;1.00;;;;;;5038196;28;20454;-69
2022/06/10 03:19:42;;;;;;;6.50;5.00;;;12.80;1.00;;;;;;5036932;28;20516;-69
2022/06/10 03:22:36;;;;;;;7.40;5.63;;;12.90;1.00;;;;;;5039625;28;20446;-69
2022/06/10 03:25:31;;;;;;;6.10;5.60;;;12.90;1.00;;;;;;5054047;28;20412;-75
2022/06/10 03:28:14;;;;;;;9.67;5.67;;;12.90;1.00;;;;;;5041720;28;20894;-75
2022/06/10 03:30:49;;;;;;;6.20;5.40;;;12.80;1.00;;;;;;5033974;28;20474;-71
2022/06/10 03:33:40;;;;;;;6.07;5.47;;;12.80;1.00;;;;;;5035143;28;20434;-69
2022/06/10 03:36:15;;;;;;;6.97;6.10;;;12.80;1.00;;;;;;5034340;28;20377;-74
2022/06/10 03:38:45;;;;;;;16.37;6.17;;;12.80;1.00;;;;;;5049600;28;20445;-69
2022/06/10 03:41:24;;;;;;;8.30;5.63;;;12.80;1.00;;;;;;5053932;28;20409;-75
2022/06/10 03:43:53;;;;;;;9.70;6.30;;;12.90;1.00;;;;;;5034863;28;20519;-75
2022/06/10 03:46:21;;;;;;;7.43;6.00;;;12.80;1.00;;;;;;5033960;28;20365;-74
2022/06/10 03:48:49;;;;;;;7.53;6.27;;;12.80;1.00;;;;;;5048645;28;20476;-69
2022/06/10 03:51:18;;;;;;;8.27;6.83;;;12.80;1.00;;;;;;5053808;28;20436;-75
2022/06/10 03:53:44;;;;;;;8.13;6.93;;;12.80;1.00;;;;;;5039337;28;20776;-76
2022/06/10 03:56:11;;;;;;;7.30;6.00;;;12.80;1.00;;;;;;5032473;28;20418;-72
2022/06/10 03:58:38;;;;;;;11.90;7.30;;;12.80;1.00;;;;;;5035956;28;20461;-70
2022/06/10 04:01:04;;;;;;;9.87;6.60;;;12.90;1.00;;;;;;5033606;28;20887;-74
2022/06/10 04:03:30;;;;;;;8.37;7.20;;;12.80;1.00;;;;;;5044240;28;20516;-69
2022/06/10 04:05:55;;;;;;;17.03;8.70;;;12.80;1.00;;;;;;5052466;28;20933;-75
2022/06/10 04:08:21;;;;;;;9.47;6.00;;;12.90;1.00;;;;;;5041571;28;20230;-75
2022/06/10 04:10:47;;;;;;;6.77;6.07;;;12.90;1.00;;;;;;5033652;28;20171;-69
2022/06/10 04:13:17;;;;;;;7.17;6.47;;;13.00;1.00;;;;;;5036933;28;20543;-75
2022/06/10 04:15:44;;;;;;;11.83;6.60;;;13.00;1.00;;;;;;5033536;28;20175;-69
2022/06/10 04:18:10;;;;;;;8.07;6.60;;;13.10;1.00;;;;;;5038461;28;20412;-70
2022/06/10 04:20:38;;;;;;;9.33;6.40;;;13.10;1.00;;;;;;5053050;28;20409;-75
2022/06/10 04:23:05;;;;;;;9.40;6.97;;;13.10;1.00;;;;;;5048293;28;20454;-71
2022/06/10 04:25:32;;;;;;;12.80;7.73;;;13.10;1.00;;;;;;5032249;28;20417;-74
2022/06/10 04:27:58;;;;;;;14.27;7.30;;;13.10;1.00;;;;;;5031651;28;20397;-75
2022/06/10 04:30:26;;;;;;;10.20;7.37;;;13.10;1.00;;;;;;5033693;28;20468;-67
2022/06/10 04:32:52;;;;;;;13.40;7.80;;;13.00;1.00;;;;;;5034041;28;20183;-70
2022/06/10 04:35:18;;;;;;;13.87;7.77;;;13.00;1.00;;;;;;5033379;28;20481;-69
2022/06/10 04:37:45;;;;;;;12.23;7.80;;;13.10;1.00;;;;;;5032046;28;20484;-68
2022/06/10 04:40:15;;;;;;;12.17;7.73;;;13.10;1.00;;;;;;5033514;28;20814;-68
2022/06/10 04:42:41;;;;;;;15.73;7.53;;;13.20;1.00;;;;;;5035525;28;20520;-69
2022/06/10 04:45:07;;;;;;;16.03;8.57;;;13.20;1.00;;;;;;5033386;28;20395;-75
2022/06/10 04:47:33;;;;;;;10.60;7.77;;;13.30;1.00;;;;;;5037274;28;20182;-75
2022/06/10 04:49:59;;;;;;;10.20;7.77;;;13.30;1.00;;;;;;5052961;28;20459;-74
2022/06/10 04:52:27;;;;;;;9.87;6.77;;;13.30;1.00;;;;;;5040429;28;20190;-75
2022/06/10 04:54:53;;;;;;;10.43;7.60;;;13.40;1.00;;;;;;5032748;28;20788;-69
2022/06/10 04:57:19;;;;;;;11.90;7.90;;;13.40;1.00;;;;;;5042301;28;20429;-68
2022/06/10 04:59:45;;;;;;;9.87;7.60;;;13.40;1.00;;;;;;5052913;28;20758;-75
2022/06/10 05:02:10;;;;;;;10.53;7.10;;;13.50;1.00;;;;;;5043590;28;20207;-68
2022/06/10 05:04:36;;;;;;;14.97;7.73;;;13.60;1.00;;;;;;5033110;28;20752;-68
2022/06/10 05:07:02;;;;;;;9.00;6.60;;;13.70;1.00;;;;;;5038101;28;20660;-68
2022/06/10 05:09:27;;;;;;;8.53;7.43;;;13.70;1.00;;;;;;5052844;28;20195;-73
2022/06/10 05:11:53;;;;;;;15.57;7.70;;;13.80;1.00;;;;;;5045161;28;20190;-72
2022/06/10 05:14:19;;;;;;;13.37;6.73;;;13.90;1.00;;;;;;5031335;28;20175;-66
2022/06/10 05:16:44;;;;;;;8.70;6.37;;;14.00;1.00;;;;;;5035331;28;20182;-67
2022/06/10 05:19:10;;;;;;;9.13;6.10;;;14.10;1.00;;;;;;5052758;28;20593;-73
2022/06/10 05:21:36;;;;;;;11.33;5.73;;;14.20;1.00;;;;;;5052946;28;20704;-69
2022/06/10 05:24:02;;;;;;;7.87;6.60;;;14.20;1.00;;;;;;5035889;28;20946;-69
2022/06/10 05:26:29;;;;;;;6.83;5.33;;;14.20;1.00;;;;;;5036451;28;20628;-73
2022/06/10 05:28:56;;;;;;;9.20;5.40;;;14.20;1.00;;;;;;5056316;28;20491;-75
2022/06/10 05:31:22;;;;;;;7.73;4.90;;;14.30;1.00;;;;;;5054845;28;20452;-69
2022/06/10 05:36:32;;;;;;;6.83;4.47;;;14.40;1.00;;;;;;5052140;28;20431;-70
2022/06/10 05:38:57;;;;;;;8.50;5.20;;;14.50;1.00;;;;;;5035714;28;20477;-75
2022/06/10 05:44:07;;;;;;;12.67;5.90;;;14.70;1.00;;;;;;5056121;28;20741;-75
2022/06/10 05:46:33;;;;;;;8.60;4.90;;;14.80;1.00;;;;;;5053279;28;20406;-75
2022/06/10 05:48:58;;;;;;;7.00;5.17;;;14.80;1.00;;;;;;5036190;28;20250;-69
2022/06/10 05:51:24;;;;;;;10.07;5.07;;;14.80;1.00;;;;;;5039243;28;20618;-74
2022/06/10 05:53:50;;;;;;;16.67;5.00;;;14.90;1.00;;;;;;5037679;28;20230;-75
2022/06/10 05:56:16;;;;;;;9.07;5.00;;;14.90;1.00;;;;;;5036729;28;20506;-73
2022/06/10 05:58:42;;;;;;;6.47;4.50;;;15.00;1.00;;;;;;5047997;28;20199;-75
2022/06/10 06:01:08;;;;;;;9.30;5.53;;;15.00;1.00;;;;;;5054338;28;20420;-75
2022/06/10 06:03:33;;;;;;;6.77;4.67;;;14.90;1.00;;;;;;5035864;28;20534;-69
2022/06/10 06:06:00;;;;;;;10.97;4.50;;;15.00;1.00;;;;;;5035907;28;20176;-70
2022/06/10 06:08:26;;;;;;;10.63;5.00;;;15.20;1.00;;;;;;5052760;28;20206;-68
2022/06/10 06:10:52;;;;;;;8.73;4.00;;;15.20;1.00;;;;;;5055770;28;20393;-69
2022/06/10 06:13:17;;;;;;;9.67;4.17;;;15.30;1.00;;;;;;5038692;28;20571;-69
2022/06/10 06:15:44;;;;;;;5.03;3.63;;;15.30;1.00;;;;;;5033574;28;20187;-68
2022/06/10 06:18:10;;;;;;;6.93;3.70;;;15.40;1.00;;;;;;5049180;28;20191;-69
2022/06/10 06:20:36;;;;;;;4.93;3.20;;;15.40;1.00;;;;;;5055367;28;20421;-68
2022/06/10 06:23:02;;;;;;;7.13;3.90;;;15.50;1.00;;;;;;5041867;28;20458;-75
2022/06/10 06:25:30;;;;;;;9.23;3.20;;;15.60;1.00;;;;;;5035194;28;20176;-70
2022/06/10 06:27:56;;;;;;;9.03;3.40;;;15.70;1.00;;;;;;5044108;28;20425;-69
2022/06/10 06:30:30;;;;;;;8.90;3.17;;;15.70;1.00;;;;;;5034354;28;20411;-69
2022/06/10 06:32:57;;;;;;;3.53;3.00;;;15.80;99.90;;;;;;5041314;28;20463;-68
2022/06/10 06:35:23;;;;;;;14.53;3.43;;;15.80;99.90;;;;;;5040427;28;20437;-69
2022/06/10 06:37:49;;;;;;;3.40;3.10;;;15.80;99.90;;;;;;5044161;28;20418;-75
2022/06/10 06:40:15;;;;;;;6.43;3.60;;;15.90;99.90;;;;;;5052859;28;20433;-75
2022/06/10 06:42:41;;;;;;;8.80;3.13;;;16.00;99.90;;;;;;5046416;28;20282;-71
2022/06/10 06:45:08;;;;;;;5.70;2.77;;;16.00;99.90;;;;;;5034660;28;20171;-75
2022/06/10 06:47:33;;;;;;;4.33;2.67;;;16.00;99.90;;;;;;5037135;28;20203;-75
2022/06/10 06:50:00;;;;;;;11.73;2.97;;;16.10;99.90;;;;;;5033985;28;20420;-76
2022/06/10 06:52:25;;;;;;;7.30;2.90;;;16.20;99.90;;;;;;5035320;28;20188;-75
2022/06/10 06:54:51;;;;;;;3.67;2.93;;;16.30;99.90;;;;;;5034262;28;20442;-74
2022/06/10 06:57:18;;;;;;;8.87;3.00;;;16.30;99.90;;;;;;5037013;28;20536;-71
2022/06/10 06:59:43;;;;;;;6.20;3.30;;;16.30;99.90;;;;;;5043576;28;20191;-74
2022/06/10 07:02:10;;;;;;;2.73;2.53;;;16.30;99.90;;;;;;5034500;28;20413;-69
2022/06/10 07:04:37;;;;;;;6.80;3.30;;;16.40;99.90;;;;;;5038840;28;20177;-74
2022/06/10 07:07:03;;;;;;;5.97;3.43;;;16.40;99.90;;;;;;5052594;28;20419;-68
2022/06/10 07:09:29;;;;;;;3.57;3.27;;;16.50;99.90;;;;;;5051198;28;20437;-68
2022/06/10 07:11:55;;;;;;;7.53;3.30;;;16.60;99.90;;;;;;5034730;28;20406;-75
2022/06/10 07:14:22;;;;;;;4.17;3.30;;;16.70;99.90;;;;;;5035563;28;20448;-74
2022/06/10 07:16:51;;;;;;;7.57;3.40;;;16.70;99.90;;;;;;5053534;28;20504;-67
2022/06/10 07:19:18;;;;;;;6.90;3.10;;;16.80;99.90;;;;;;5054147;28;20428;-74
2022/06/10 07:21:44;;;;;;;5.33;3.00;;;16.90;99.90;;;;;;5033663;28;20423;-74
2022/06/10 07:24:09;;;;;;;7.50;2.57;;;16.90;99.90;;;;;;5034370;28;20466;-67
2022/06/10 07:26:35;;;;;;;4.57;2.90;;;17.00;99.90;;;;;;5051767;28;20225;-74
2022/06/10 07:29:01;;;;;;;2.63;2.40;;;17.10;99.90;;;;;;5054123;28;20187;-75
2022/06/10 07:31:27;;;;;;;5.20;2.47;;;17.30;99.90;;;;;;5037105;28;20179;-75
2022/06/10 07:33:53;;;;;;;5.30;3.30;;;17.40;99.90;;;;;;5034278;28;20399;-75
2022/06/10 07:36:19;;;;;;;2.70;1.90;;;17.40;99.90;;;;;;5038257;28;20429;-75
2022/06/10 07:38:45;;;;;;;5.37;3.10;;;17.30;99.90;;;;;;5033089;28;20196;-69
2022/06/10 07:43:55;;;;;;;5.77;3.50;;;17.50;99.90;;;;;;5053143;28;20248;-75
2022/06/10 07:46:22;;;;;;;4.70;2.40;;;17.60;99.90;;;;;;5039245;28;20847;-68
2022/06/10 07:48:48;;;;;;;4.77;2.93;;;17.70;99.90;;;;;;5032227;28;20225;-74
2022/06/10 07:51:15;;;;;;;2.40;2.20;;;17.60;99.90;;;;;;5046274;28;20437;-68
2022/06/10 07:53:41;;;;;;;4.33;2.83;;;17.60;99.90;;;;;;5041458;28;20982;-75
2022/06/10 07:56:08;;;;;;;3.37;2.33;;;17.60;99.90;;;;;;5034022;28;20537;-75
2022/06/10 07:58:34;;;;;;;8.57;2.60;;;17.80;99.90;;;;;;5032458;28;20446;-68
2022/06/10 08:01:00;;;;;;;2.47;2.03;;;17.90;99.90;;;;;;5033789;28;20434;-76
2022/06/10 08:03:28;;;;;;;2.87;2.20;;;18.00;99.90;;;;;;5033825;28;20207;-68
2022/06/10 08:05:53;;;;;;;8.53;2.60;;;18.10;99.90;;;;;;5053884;28;20166;-69
2022/06/10 08:08:20;;;;;;;4.40;2.60;;;18.30;99.90;;;;;;5052623;28;20425;-74
2022/06/10 08:10:47;;;;;;;3.73;2.07;;;18.20;99.90;;;;;;5053588;28;20179;-67
2022/06/10 08:13:13;;;;;;;6.67;3.10;;;18.20;99.90;;;;;;5053489;28;20428;-75
2022/06/10 08:15:41;;;;;;;5.50;2.23;;;18.20;99.90;;;;;;5053018;28;20894;-68
2022/06/10 08:18:07;;;;;;;5.10;2.43;;;18.30;99.90;;;;;;5045908;28;20438;-68
2022/06/10 08:23:23;;;;;;;7.00;2.30;;;18.30;99.90;;;;;;5033349;28;20442;-76
2022/06/10 08:25:49;;;;;;;3.13;1.97;;;18.40;99.90;;;;;;5033585;28;20911;-67
2022/06/10 08:28:15;;;;;;;8.10;3.40;;;18.40;99.90;;;;;;5032473;28;20414;-67
2022/06/10 08:30:41;;;;;;;3.90;2.70;;;18.50;99.90;;;;;;5032581;28;20418;-75
2022/06/10 08:33:07;;;;;;;2.40;2.00;;;18.80;99.90;;;;;;5032734;28;20434;-67
2022/06/10 08:35:35;;;;;;;4.67;2.30;;;18.90;99.90;;;;;;5032885;28;20213;-75
2022/06/10 08:38:03;;;;;;;3.20;1.97;;;19.00;99.90;;;;;;5032416;28;20425;-74
2022/06/10 08:40:52;;;;;;;2.90;1.97;;;19.10;99.90;;;;;;5033269;28;20402;-74
2022/06/10 08:43:23;;;;;;;2.90;1.40;;;19.20;99.90;;;;;;5033279;28;20434;-70
2022/06/10 08:46:03;;;;;;;3.80;1.90;;;19.30;99.90;;;;;;5032409;28;20417;-67
2022/06/10 08:48:46;;;;;;;7.13;2.13;;;19.40;99.90;;;;;;5032251;28;20953;-75
2022/06/10 08:51:32;;;;;;;3.30;2.17;;;19.50;99.90;;;;;;5033311;28;20399;-74
2022/06/10 08:54:08;;;;;;;2.90;1.70;;;19.60;99.90;;;;;;5033122;28;20417;-75
2022/06/10 08:56:40;;;;;;;4.17;2.03;;;19.70;99.90;;;;;;5034304;28;20410;-67
2022/06/10 08:59:08;;;;;;;7.50;3.87;;;19.80;99.90;;;;;;5037079;28;20558;-66
2022/06/10 09:01:49;;;;;;;6.73;2.00;;;19.80;99.90;;;;;;5036480;28;20437;-68
2022/06/10 09:04:23;;;;;;;4.70;1.80;;;20.00;99.90;;;;;;5037190;28;20469;-74
2022/06/10 09:06:54;;;;;;;3.73;1.87;;;20.40;99.90;;;;;;5034931;28;21179;-69
2022/06/10 09:09:23;;;;;;;3.83;2.10;;;20.50;99.90;;;;;;5037023;28;20557;-66
2022/06/10 09:12:03;;;;;;;9.10;4.03;;;20.50;99.90;;;;;;5036889;28;20421;-74
2022/06/10 09:14:29;;;;;;;4.90;2.23;;;20.40;99.90;;;;;;5042092;28;20436;-66
2022/06/10 09:17:02;;;;;;;4.90;2.17;;;20.40;99.90;;;;;;5055751;28;20393;-75
2022/06/10 09:19:58;;;;;;;2.47;2.03;;;20.60;99.90;;;;;;5056622;28;20450;-74
2022/06/10 09:23:12;;;;;;;7.67;2.13;;;20.90;99.90;;;;;;5056535;28;20514;-67
2022/06/10 09:25:50;;;;;;;6.00;2.30;;;20.80;99.90;;;;;;5054407;28;20500;-75
2022/06/10 09:28:16;;;;;;;2.73;2.17;;;20.50;99.90;;;;;;5052470;28;20544;-67
2022/06/10 09:30:58;;;;;;;7.03;2.53;;;20.50;99.90;;;;;;5043463;28;20842;-74
2022/06/10 09:33:37;;;;;;;6.13;2.80;;;20.40;99.90;;;;;;5036197;28;20895;-67
2022/06/10 09:36:27;;;;;;;4.17;2.63;;;20.40;99.90;;;;;;5036233;28;20417;-68
2022/06/10 09:42:59;;;;;;;11.00;2.80;;;20.40;99.90;;;;;;5035187;28;20433;-75
2022/06/10 09:45:34;;;;;;;12.83;2.87;;;20.10;99.90;;;;;;5040195;28;20406;-75
2022/06/10 09:48:35;;;;;;;9.40;3.60;;;19.90;99.90;;;;;;5035169;28;20783;-69
2022/06/10 09:51:20;;;;;;;7.90;3.80;;;19.90;99.90;;;;;;5035382;28;20454;-74
2022/06/10 09:54:20;;;;;;;5.97;3.40;;;20.00;99.90;;;;;;5036207;28;20500;-66
2022/06/10 09:56:52;;;;;;;10.70;3.10;;;19.90;99.60;;;;;;5034692;28;20430;-67
2022/06/10 09:59:42;;;;;;;5.10;3.43;;;19.90;97.10;;;;;;5036023;28;20925;-67
2022/06/10 10:02:26;;;;;;;10.17;2.80;;;20.20;99.10;;;;;;5035815;28;20402;-66
2022/06/10 10:05:10;;;;;;;3.40;2.77;;;21.00;99.90;;;;;;5036049;28;20406;-66
2022/06/10 10:07:50;;;;;;;4.10;2.60;;;21.50;96.30;;;;;;5033999;28;20453;-73
2022/06/10 10:10:37;;;;;;;5.40;2.03;;;21.80;96.40;;;;;;5035772;28;20447;-73
2022/06/10 10:13:11;;;;;;;5.47;2.30;;;22.30;96.60;;;;;;5036497;28;20512;-66
2022/06/10 10:15:40;;;;;;;9.20;2.63;;;22.60;97.80;;;;;;5035695;28;20399;-73
2022/06/10 10:18:35;;;;;;;3.67;2.50;;;22.90;96.80;;;;;;5034781;28;20414;-75
2022/06/10 10:21:15;;;;;;;4.53;2.40;;;22.60;96.70;;;;;;5035643;28;20928;-67
2022/06/10 10:23:46;;;;;;;3.07;1.60;;;22.40;96.60;;;;;;5035630;28;20453;-74
2022/06/10 10:26:26;;;;;;;2.73;1.93;;;22.90;96.80;;;;;;5035299;28;20441;-68
2022/06/10 10:29:03;;;;;;;7.30;2.53;;;23.50;96.00;;;;;;5033753;28;20481;-67
2022/06/10 10:31:34;;;;;;;3.50;2.10;;;23.70;91.50;;;;;;5035465;28;20464;-68
2022/06/10 10:34:03;;;;;;;7.13;2.40;;;23.00;85.90;;;;;;5035473;28;20486;-75
2022/06/10 10:36:32;;;;;;;4.30;1.57;;;23.00;84.70;;;;;;5034233;28;20859;-71
2022/06/10 10:39:13;;;;;;;13.00;2.13;;;23.50;86.00;;;;;;5034900;28;20505;-71
2022/06/10 10:41:45;;;;;;;10.13;2.07;;;24.00;78.10;;;;;;5035274;28;20448;-71
2022/06/10 10:44:38;;;;;;;6.00;2.10;;;24.40;78.00;;;;;;5042801;28;20453;-71
2022/06/10 10:47:10;;;;;;;4.50;1.40;;;25.00;78.90;;;;;;5054560;28;20402;-68
2022/06/10 10:49:44;;;;;;;4.03;1.90;;;24.80;64.70;;;;;;5055045;28;20476;-69
2022/06/10 10:52:22;;;;;;;2.80;1.73;;;24.40;63.40;;;;;;5055106;28;20874;-67
2022/06/10 10:54:52;;;;;;;3.13;2.10;;;23.60;51.00;;;;;;5055046;28;20480;-72
2022/06/10 10:57:25;;;;;;;5.13;1.70;;;23.20;57.40;;;;;;5050548;28;20445;-66
2022/06/10 11:00:10;;;;;;;5.60;2.73;;;23.00;54.80;;;;;;5053759;28;20449;-68
2022/06/10 11:02:50;;;;;;;3.40;1.90;;;22.50;44.50;;;;;;5053807;28;20457;-73
2022/06/10 11:05:15;;;;;;;5.77;1.90;;;22.60;54.60;;;;;;5054390;28;20459;-67
2022/06/10 11:07:43;;;;;;;4.47;1.93;;;23.20;60.40;;;;;;5053894;28;20882;-66
2022/06/10 11:10:29;;;;;;;6.40;1.47;;;23.50;68.30;;;;;;5054719;28;20597;-73
2022/06/10 11:13:00;;;;;;;5.80;2.30;;;23.50;64.20;;;;;;5052296;28;20481;-73
2022/06/10 11:15:30;;;;;;;3.30;1.80;;;23.40;62.90;;;;;;5054559;28;20496;-74
2022/06/10 11:17:58;;;;;;;2.93;1.80;;;23.20;61.20;;;;;;5053683;28;20397;-67
2022/06/10 11:20:31;;;;;;;5.57;1.97;;;23.20;52.30;;;;;;5053044;28;20429;-74
2022/06/10 11:23:29;;;;;;;2.40;1.30;;;23.10;48.70;;;;;;5054282;28;20461;-67
2022/06/10 11:26:17;;;;;;;4.03;1.93;;;23.10;45.60;;;;;;5052887;28;20421;-67
2022/06/10 11:28:44;;;;;;;2.97;1.73;;;22.90;45.70;;;;;;5038521;28;20571;-67
2022/06/10 11:31:30;;;;;;;3.37;1.93;;;23.00;47.00;;;;;;5034255;28;20745;-74
2022/06/10 11:33:59;;;;;;;5.80;2.43;;;23.40;55.50;;;;;;5034094;28;20416;-67
2022/06/10 11:36:32;;;;;;;5.77;2.23;;;24.10;53.20;;;;;;5033905;28;20944;-74
2022/06/10 11:39:17;;;;;;;4.57;2.63;;;24.40;47.80;;;;;;5034075;28;20424;-66
2022/06/10 11:42:00;;;;;;;2.57;2.03;;;24.70;46.90;;;;;;5034320;28;20399;-72
2022/06/10 11:44:29;;;;;;;4.97;2.40;;;25.60;57.00;;;;;;5041107;28;20954;-69
2022/06/10 11:47:03;;;;;;;5.17;2.27;;;26.60;48.30;;;;;;5053022;28;20408;-69
2022/06/10 11:49:40;;;;;;;1.60;1.50;;;26.90;41.40;;;;;;5052639;28;20526;-76
2022/06/10 11:52:28;;;;;;;3.33;1.63;;;27.10;33.40;;;;;;5053969;28;20393;-69
2022/06/10 11:55:14;;;;;;;2.43;1.50;;;27.70;29.30;;;;;;5053814;28;20435;-69
2022/06/10 12:01:16;;;;;;;2.73;1.63;;;29.10;18.60;;;;;;5033784;28;20390;-70
2022/06/10 12:03:50;;;;;;;2.73;1.50;;;28.20;9.10;;;;;;5032019;28;20855;-66
2022/06/10 12:06:36;;;;;;;9.97;3.47;;;27.00;1.00;;;;;;5033483;28;20398;-72
2022/06/10 12:09:17;;;;;;;6.27;2.17;;;26.50;1.00;;;;;;5033554;28;20422;-73
2022/06/10 12:11:52;;;;;;;4.17;1.80;;;25.90;1.00;;;;;;5049253;28;20425;-73
2022/06/10 12:14:45;;;;;;;3.50;1.60;;;25.40;1.00;;;;;;5053544;28;20957;-74
2022/06/10 12:17:35;;;;;;;4.50;2.07;;;25.40;1.00;;;;;;5052401;28;20440;-72
2022/06/10 12:20:10;;;;;;;3.70;2.23;;;25.20;1.00;;;;;;5048737;28;20868;-71
2022/06/10 12:22:37;;;;;;;5.60;1.97;;;24.40;1.00;;;;;;5051174;28;20452;-74
2022/06/10 12:25:14;;;;;;;5.43;2.17;;;24.30;1.00;;;;;;5051166;28;20421;-66
2022/06/10 12:27:48;;;;;;;2.37;1.80;;;24.80;1.30;;;;;;5046210;28;20523;-74
2022/06/10 12:30:18;;;;;;;3.13;1.90;;;25.90;6.90;;;;;;5031821;28;20911;-66
2022/06/10 12:32:53;;;;;;;8.10;1.70;;;26.40;1.20;;;;;;5033574;28;20405;-74
2022/06/10 12:35:32;;;;;;;8.77;2.03;;;25.90;1.00;;;;;;5033230;28;20397;-66
2022/06/10 12:38:04;;;;;;;3.40;1.90;;;25.50;1.00;;;;;;5032137;28;20401;-66
2022/06/10 12:40:34;;;;;;;3.20;1.90;;;25.80;1.00;;;;;;5033399;28;20469;-66
2022/06/10 12:43:04;;;;;;;2.23;1.70;;;26.00;1.00;;;;;;5042754;28;21022;-72
2022/06/10 12:45:44;;;;;;;2.47;2.03;;;25.60;1.00;;;;;;5053247;28;20409;-73
2022/06/10 12:48:20;;;;;;;7.13;2.80;;;25.00;1.00;;;;;;5052113;28;20465;-73
2022/06/10 12:50:51;;;;;;;3.33;2.30;;;24.60;1.00;;;;;;5053056;28;20393;-72
2022/06/10 12:53:48;;;;;;;3.50;2.20;;;24.40;1.00;;;;;;5052832;28;20416;-66
2022/06/10 12:56:26;;;;;;;6.90;2.67;;;23.90;1.00;;;;;;5052647;28;20455;-70
2022/06/10 12:59:04;;;;;;;5.10;2.80;;;23.90;1.00;;;;;;5051691;28;20527;-66
2022/06/10 13:01:30;;;;;;;4.33;3.20;;;23.80;1.00;;;;;;5053015;28;20439;-72
2022/06/10 13:04:07;;;;;;;4.83;2.83;;;23.50;1.00;;;;;;5052954;28;20453;-66
2022/06/10 13:06:45;;;;;;;4.90;3.20;;;23.40;1.00;;;;;;5052073;28;20509;-68
2022/06/10 13:09:10;;;;;;;4.03;2.70;;;23.40;1.90;;;;;;5052837;28;20413;-68
2022/06/10 13:11:49;;;;;;;4.67;2.83;;;23.40;4.70;;;;;;5051023;28;20954;-69
2022/06/10 13:14:21;;;;;;;3.57;2.70;;;23.20;5.80;;;;;;5052985;28;20624;-65
2022/06/10 13:17:13;;;;;;;4.63;2.60;;;23.30;5.80;;;;;;5047901;28;21255;-71
2022/06/10 13:19:54;;;;;;;3.47;3.17;;;23.20;13.00;;;;;;5052412;28;20437;-72
2022/06/10 13:22:20;;;;;;;3.60;2.70;;;23.20;11.00;;;;;;5052427;28;20482;-65
2022/06/10 13:24:54;;;;;;;7.07;3.10;;;23.30;17.80;;;;;;5052623;28;20401;-73
2022/06/10 13:27:28;;;;;;;3.80;3.30;;;23.40;16.10;;;;;;5051729;28;20155;-68
2022/06/10 13:30:14;;;;;;;3.73;2.83;;;23.40;14.40;;;;;;5050891;28;20831;-72
2022/06/10 13:32:47;;;;;;;6.20;3.43;;;23.40;14.50;;;;;;5040422;28;20445;-72
2022/06/10 13:35:35;;;;;;;3.10;2.77;;;23.30;15.70;;;;;;5032851;28;20830;-68
2022/06/10 13:38:24;;;;;;;7.10;2.90;;;23.60;25.70;;;;;;5031097;28;20943;-75
2022/06/10 13:41:48;;;;;;;8.87;4.83;;;23.70;22.70;;;;;;5032681;28;20925;-72
2022/06/10 13:43:42;;;;;;;3.40;3.10;;;23.50;22.30;;;;;;5036096;28;20449;-66